SBRJ/SDU METAR and TAF weather

Enter ICAO airport designator
Station Type Date Time Source
SBRJ METAR 2021/03/01 02:00 UTC NOAA

SBRJ 010200Z 08009KT 040V100 9999 SCT025 26/22 Q1013


Station Type Date Time Source
SBRJ Decoded METAR 2021/03/01 02:00 UTC NOAA

Rio De Janeiro Aeroporto , Brazil (SBRJ) 22-54S 043-10W
Feb 28, 2021 - 09:00 PM EST / 2021.03.01 0200 UTC
Wind: from the E (080 degrees) at 10 MPH (9 KT) (direction variable):0
Visibility: greater than 7 mile(s):0
Sky conditions: partly cloudy
Temperature: 78 F (26 C)
Dew Point: 71 F (22 C)
Relative Humidity: 78%
Pressure (altimeter): 29.91 in. Hg (1013 hPa)
ob: SBRJ 010200Z 08009KT 040V100 9999 SCT025 26/22 Q1013
cycle: 2

Station Type Date Time Source
SBRJ TAF 2021/03/01 00:27 UTC NOAA

TAF SBRJ 282056Z 0100/0112 15005KT 9999 FEW020 TN25/0109Z TX27/0112Z
BECMG 0102/0104 07005KT
BECMG 0106/0108 01005KT
RMK PHQ

Example: see airport list